Saegertown, Pennsylvania
Current Conditions -  °F | °C
As of 9:53 AM on Thursday 30 Oct 2014 (Local Time) from KGKJ Reporting Station
Light Rain Light Rain  
Wind Chill: 43°   Ceiling: 2700
Heat Index: 43°   Visibility: 10mi
Dew Point: 38°   Wind: 3mph
Humidity: 82%   Direction: 310°NW
Pressure: 30.09"   Gusts: NA
Location:  41.72°N, 80.15°W
Report Text: KGKJ 301353Z AUTO 31003KT 10SM -RA FEW008 SCT015 OVC027 06/03 A3009 RMK AO2 SLP196 P0000 T00610033 TSNO
Loading
Personal Weather Stations






























Interactive Weather Map
Tropical Storm Tracking
New forecast layout! Learn more

10-Day Weather Forecast

Advertisements
Track Severe Weather on mobile